Time;durP1;ratioP1;P1;durP2;ratioP2;P2;SDS_P1;SDS_P2;PMS_P1;PMS_P2;Temp;Humidity;BMP_temperature;BMP_pressure;BME280_temperature;BME280_humidity;BME280_pressure;Samples;Min_cycle;Max_cycle;Signal;HPM_P1;HPM_P2
2022/06/27 00:01:12;;;;;;;5.47;4.80;;;17.30;99.90;;;;;;4977933;28;20390;-73
2022/06/27 00:03:38;;;;;;;4.97;4.43;;;17.30;99.90;;;;;;4963696;28;20470;-73
2022/06/27 00:06:03;;;;;;;6.47;4.90;;;17.30;99.90;;;;;;4965254;28;20050;-73
2022/06/27 00:08:29;;;;;;;5.78;4.65;;;17.30;99.90;;;;;;4974904;28;20054;-73
2022/06/27 00:10:55;;;;;;;5.53;4.50;;;17.30;99.90;;;;;;4975023;28;20104;-73
2022/06/27 00:13:21;;;;;;;5.85;4.75;;;17.20;99.90;;;;;;4960797;28;20053;-72
2022/06/27 00:15:46;;;;;;;7.13;4.57;;;17.30;99.90;;;;;;4979529;28;20397;-72
2022/06/27 00:18:12;;;;;;;6.78;4.55;;;17.30;99.90;;;;;;4974434;28;20034;-72
2022/06/27 00:20:38;;;;;;;8.90;5.47;;;17.30;99.90;;;;;;4960235;28;20116;-72
2022/06/27 00:23:04;;;;;;;7.28;4.70;;;17.20;99.90;;;;;;4983098;28;20038;-72
2022/06/27 00:25:29;;;;;;;5.05;4.55;;;17.20;99.90;;;;;;4963795;28;20573;-72
2022/06/27 00:27:55;;;;;;;5.65;4.45;;;17.20;99.90;;;;;;4955940;28;20055;-73
2022/06/27 00:30:21;;;;;;;6.38;4.18;;;17.20;99.90;;;;;;4974788;28;20394;-72
2022/06/27 00:32:48;;;;;;;5.78;4.18;;;17.20;99.90;;;;;;4974105;28;20062;-72
2022/06/27 00:35:14;;;;;;;5.85;4.15;;;17.10;99.90;;;;;;4974246;28;20141;-72
2022/06/27 00:37:40;;;;;;;8.18;3.88;;;17.10;99.90;;;;;;4957633;28;20138;-72
2022/06/27 00:40:06;;;;;;;5.43;4.32;;;17.10;99.90;;;;;;4971780;28;20185;-72
2022/06/27 00:42:33;;;;;;;7.15;4.80;;;17.10;99.90;;;;;;4985111;28;20046;-72
2022/06/27 00:44:59;;;;;;;5.63;4.97;;;17.10;99.90;;;;;;4958646;28;20061;-72
2022/06/27 00:47:25;;;;;;;5.63;4.93;;;17.10;99.90;;;;;;4969495;28;20042;-72
2022/06/27 00:49:51;;;;;;;5.10;4.25;;;17.10;99.90;;;;;;4971176;28;20058;-72
2022/06/27 00:52:16;;;;;;;6.40;4.85;;;17.10;99.90;;;;;;4974058;28;20046;-72
2022/06/27 00:54:45;;;;;;;6.70;4.60;;;17.10;99.90;;;;;;4973852;28;20387;-72
2022/06/27 00:57:12;;;;;;;6.85;4.47;;;17.10;99.90;;;;;;4958132;28;20038;-72
2022/06/27 00:59:38;;;;;;;6.13;4.82;;;17.10;99.90;;;;;;4969178;28;20046;-72
2022/06/27 01:02:05;;;;;;;5.63;4.88;;;17.10;99.90;;;;;;4973792;28;20054;-72
2022/06/27 01:04:31;;;;;;;4.97;4.53;;;17.00;99.90;;;;;;4973839;28;20089;-72
2022/06/27 01:06:58;;;;;;;5.25;4.53;;;17.00;99.90;;;;;;4974830;28;20416;-72
2022/06/27 01:09:24;;;;;;;6.15;4.60;;;17.00;99.90;;;;;;4959432;28;20116;-72
2022/06/27 01:11:51;;;;;;;9.57;4.90;;;16.90;99.90;;;;;;4983377;28;20042;-72
2022/06/27 01:14:18;;;;;;;4.30;3.90;;;16.90;99.90;;;;;;4973406;28;20039;-72
2022/06/27 01:16:44;;;;;;;5.75;4.38;;;16.90;99.90;;;;;;4973754;28;20038;-72
2022/06/27 01:19:12;;;;;;;5.95;4.47;;;16.90;99.90;;;;;;4974040;28;20050;-72
2022/06/27 01:21:49;;;;;;;6.95;4.32;;;16.90;99.90;;;;;;4964897;28;20046;-72
2022/06/27 01:24:16;;;;;;;5.60;4.20;;;16.90;99.90;;;;;;4973746;28;20038;-72
2022/06/27 01:26:43;;;;;;;5.82;4.93;;;16.80;99.90;;;;;;4973124;28;20046;-72
2022/06/27 01:29:09;;;;;;;5.57;4.38;;;16.80;99.90;;;;;;4974646;28;20062;-72
2022/06/27 01:31:36;;;;;;;5.13;4.10;;;16.80;99.90;;;;;;4973624;28;20038;-72
2022/06/27 01:34:02;;;;;;;4.90;4.50;;;16.80;99.90;;;;;;4991131;28;20030;-72
2022/06/27 01:36:43;;;;;;;5.40;4.90;;;16.80;99.90;;;;;;4963138;28;20407;-72
2022/06/27 01:39:24;;;;;;;4.53;4.13;;;16.80;99.90;;;;;;4976167;28;20054;-72
2022/06/27 01:41:52;;;;;;;5.07;4.55;;;16.80;99.90;;;;;;4956722;28;20865;-72
2022/06/27 01:44:19;;;;;;;4.63;3.88;;;16.80;99.90;;;;;;4973544;28;20065;-72
2022/06/27 01:47:00;;;;;;;5.50;4.03;;;16.80;99.90;;;;;;4980454;28;20038;-72
2022/06/27 01:49:28;;;;;;;7.07;4.57;;;16.80;99.90;;;;;;4985174;28;20463;-72
2022/06/27 01:51:55;;;;;;;6.50;4.40;;;16.90;99.90;;;;;;4990419;28;20482;-72
2022/06/27 01:54:22;;;;;;;6.20;4.32;;;16.80;99.90;;;;;;4973403;28;20041;-72
2022/06/27 01:56:49;;;;;;;6.75;4.80;;;16.80;99.90;;;;;;4952826;28;20072;-72
2022/06/27 01:59:17;;;;;;;7.72;4.57;;;16.80;99.90;;;;;;4973894;28;20038;-72
2022/06/27 02:01:44;;;;;;;6.20;4.90;;;16.80;99.90;;;;;;4975543;28;20089;-72
2022/06/27 02:04:11;;;;;;;6.30;5.13;;;16.80;99.90;;;;;;4980244;28;20054;-72
2022/06/27 02:06:37;;;;;;;6.80;5.05;;;16.90;99.90;;;;;;4955907;28;20070;-72
2022/06/27 02:09:05;;;;;;;7.38;5.40;;;16.90;99.90;;;;;;4985977;28;20451;-72
2022/06/27 02:11:31;;;;;;;7.72;5.22;;;16.80;99.90;;;;;;4979254;28;20042;-72
2022/06/27 02:13:58;;;;;;;7.75;5.20;;;16.80;99.90;;;;;;4975643;28;20041;-72
2022/06/27 02:16:24;;;;;;;6.43;4.90;;;16.80;99.90;;;;;;4976304;28;20038;-72
2022/06/27 02:18:50;;;;;;;5.22;4.72;;;16.80;99.90;;;;;;4978012;28;20091;-72
2022/06/27 02:21:21;;;;;;;7.40;4.88;;;16.80;99.90;;;;;;4969802;28;20042;-72
2022/06/27 02:23:48;;;;;;;6.05;4.82;;;16.80;99.90;;;;;;4975989;28;20050;-72
2022/06/27 02:26:15;;;;;;;5.82;4.95;;;16.80;99.90;;;;;;4987991;28;20037;-72
2022/06/27 02:28:43;;;;;;;8.73;5.75;;;16.80;99.90;;;;;;4979667;28;20525;-72
2022/06/27 02:31:10;;;;;;;6.13;5.13;;;16.80;99.90;;;;;;4977989;28;20088;-72
2022/06/27 02:33:43;;;;;;;6.38;4.95;;;16.80;99.90;;;;;;4976318;28;20030;-72
2022/06/27 02:36:15;;;;;;;6.05;5.45;;;16.80;99.90;;;;;;4993978;28;20054;-72
2022/06/27 02:38:42;;;;;;;5.75;5.22;;;16.80;99.90;;;;;;4975621;28;20054;-72
2022/06/27 02:41:12;;;;;;;6.90;4.75;;;16.70;99.90;;;;;;4976022;28;20065;-72
2022/06/27 02:43:39;;;;;;;6.53;5.03;;;16.70;99.90;;;;;;4975071;28;20046;-72
2022/06/27 02:46:05;;;;;;;7.68;4.65;;;16.70;99.90;;;;;;4975966;28;20050;-72
2022/06/27 02:48:32;;;;;;;5.50;4.75;;;16.70;99.90;;;;;;4975287;28;20389;-72
2022/06/27 02:51:05;;;;;;;7.35;5.40;;;16.70;99.90;;;;;;4970352;28;20145;-72
2022/06/27 02:53:34;;;;;;;6.45;4.90;;;16.70;99.90;;;;;;4987236;28;20042;-72
2022/06/27 02:56:03;;;;;;;8.73;4.70;;;16.70;99.90;;;;;;4975746;28;20072;-72
2022/06/27 02:58:47;;;;;;;7.65;4.85;;;16.70;99.90;;;;;;4974864;28;20042;-72
2022/06/27 03:01:15;;;;;;;4.50;3.88;;;16.70;99.90;;;;;;4975753;28;20073;-72
2022/06/27 03:03:42;;;;;;;5.72;4.18;;;16.70;99.90;;;;;;4976286;28;20149;-72
2022/06/27 03:06:08;;;;;;;6.47;4.93;;;16.70;99.90;;;;;;4965350;28;20058;-72
2022/06/27 03:08:37;;;;;;;5.15;4.65;;;16.70;99.90;;;;;;4975698;28;20057;-71
2022/06/27 03:11:03;;;;;;;7.70;5.25;;;16.70;99.90;;;;;;4972247;28;20046;-71
2022/06/27 03:13:29;;;;;;;8.25;5.75;;;16.70;99.90;;;;;;4974680;28;20062;-71
2022/06/27 03:15:54;;;;;;;11.63;6.35;;;16.70;99.90;;;;;;4975850;28;20132;-71
2022/06/27 03:18:20;;;;;;;8.95;6.07;;;16.70;99.90;;;;;;4975118;28;20049;-71
2022/06/27 03:20:46;;;;;;;7.57;6.53;;;16.60;99.90;;;;;;4975196;28;20831;-71
2022/06/27 03:23:12;;;;;;;6.20;5.55;;;16.60;99.90;;;;;;4975779;28;20470;-71
2022/06/27 03:25:38;;;;;;;9.13;7.15;;;16.60;99.90;;;;;;4975440;28;20057;-71
2022/06/27 03:28:04;;;;;;;10.32;7.28;;;16.60;99.90;;;;;;4974422;28;20038;-71
2022/06/27 03:30:30;;;;;;;9.82;7.43;;;16.60;99.90;;;;;;4976012;28;20038;-71
2022/06/27 03:32:56;;;;;;;7.30;6.53;;;16.70;99.90;;;;;;4974778;28;20038;-71
2022/06/27 03:35:21;;;;;;;7.18;6.47;;;16.60;99.90;;;;;;4964920;28;20477;-71
2022/06/27 03:37:47;;;;;;;7.13;6.30;;;16.60;99.90;;;;;;4974969;28;20058;-71
2022/06/27 03:40:13;;;;;;;7.82;6.97;;;16.70;99.90;;;;;;4974078;28;20104;-71
2022/06/27 03:42:39;;;;;;;9.07;6.53;;;16.70;99.90;;;;;;4974203;28;20090;-71
2022/06/27 03:45:05;;;;;;;9.15;8.23;;;16.70;99.90;;;;;;4974290;28;20078;-71
2022/06/27 03:47:31;;;;;;;11.88;8.95;;;16.70;99.90;;;;;;4981995;28;20061;-71
2022/06/27 03:50:02;;;;;;;9.82;8.85;;;16.70;99.90;;;;;;4974635;28;20042;-71
2022/06/27 03:52:28;;;;;;;12.30;10.02;;;16.70;99.90;;;;;;4973225;28;20046;-71
2022/06/27 03:54:55;;;;;;;11.52;10.32;;;16.70;99.90;;;;;;4975171;28;20050;-71
2022/06/27 03:57:21;;;;;;;12.30;10.68;;;16.60;99.90;;;;;;4973581;28;20100;-71
2022/06/27 03:59:46;;;;;;;12.80;10.75;;;16.60;99.90;;;;;;4974632;28;20050;-71
2022/06/27 04:02:13;;;;;;;12.05;10.85;;;16.60;99.90;;;;;;4977089;28;20125;-71
2022/06/27 04:04:39;;;;;;;12.63;11.35;;;16.60;99.90;;;;;;4971036;28;20046;-71
2022/06/27 04:07:04;;;;;;;13.60;12.15;;;16.60;99.90;;;;;;4974358;28;20034;-71
2022/06/27 04:09:30;;;;;;;13.75;12.13;;;16.50;99.90;;;;;;4973611;28;20042;-71
2022/06/27 04:11:56;;;;;;;12.30;11.15;;;16.50;99.90;;;;;;4972532;28;20052;-71
2022/06/27 04:14:21;;;;;;;13.52;12.10;;;16.50;99.90;;;;;;4960060;28;20429;-71
2022/06/27 04:16:47;;;;;;;12.80;11.60;;;16.50;99.90;;;;;;4973970;28;20046;-71
2022/06/27 04:19:13;;;;;;;13.43;12.07;;;16.40;99.90;;;;;;4958146;28;20525;-71
2022/06/27 04:21:39;;;;;;;12.90;11.60;;;16.40;99.90;;;;;;4976848;28;20041;-71
2022/06/27 04:24:04;;;;;;;10.68;9.68;;;16.40;99.90;;;;;;4973988;28;20054;-71
2022/06/27 04:26:30;;;;;;;8.57;7.65;;;16.40;99.90;;;;;;4973467;28;20525;-71
2022/06/27 04:28:56;;;;;;;8.60;7.90;;;16.30;99.90;;;;;;4975003;28;20116;-71
2022/06/27 04:31:22;;;;;;;7.03;6.05;;;16.20;99.90;;;;;;4973864;28;20117;-71
2022/06/27 04:33:48;;;;;;;6.93;5.18;;;16.20;99.90;;;;;;4973971;28;20046;-71
2022/06/27 04:36:13;;;;;;;4.85;4.32;;;16.20;99.90;;;;;;4957799;28;20390;-71
2022/06/27 04:38:39;;;;;;;5.47;4.60;;;16.10;99.90;;;;;;4974265;28;20306;-71
2022/06/27 04:41:06;;;;;;;6.55;5.10;;;16.10;99.90;;;;;;4962194;28;20231;-71
2022/06/27 04:43:34;;;;;;;4.85;4.30;;;16.00;99.90;;;;;;4990812;28;20046;-71
2022/06/27 04:46:02;;;;;;;4.90;4.38;;;16.00;99.90;;;;;;4976385;28;20069;-71
2022/06/27 04:48:29;;;;;;;4.90;3.85;;;16.00;99.90;;;;;;4980360;28;20486;-71
2022/06/27 04:50:56;;;;;;;4.72;4.22;;;16.00;99.90;;;;;;4989428;28;20050;-71
2022/06/27 04:53:22;;;;;;;6.15;3.90;;;16.00;99.90;;;;;;4973558;28;20034;-71
2022/06/27 04:55:49;;;;;;;4.55;4.00;;;16.00;99.90;;;;;;4973200;28;20051;-71
2022/06/27 04:58:15;;;;;;;5.05;4.15;;;16.10;99.90;;;;;;4976139;28;20031;-71
2022/06/27 05:00:42;;;;;;;4.65;4.18;;;16.00;99.90;;;;;;4979320;28;20057;-71
2022/06/27 05:03:08;;;;;;;5.22;4.15;;;16.10;99.90;;;;;;4991913;28;20462;-71
2022/06/27 05:05:34;;;;;;;5.38;4.35;;;16.10;99.90;;;;;;4976301;28;20121;-71
2022/06/27 05:08:01;;;;;;;4.88;4.47;;;16.10;99.90;;;;;;4991816;28;20146;-71
2022/06/27 05:10:28;;;;;;;5.45;4.72;;;16.20;99.90;;;;;;4975679;28;20042;-71
2022/06/27 05:12:54;;;;;;;15.80;14.20;;;16.10;99.90;;;;;;4976671;28;20452;-71
2022/06/27 05:15:20;;;;;;;6.95;5.60;;;16.20;99.90;;;;;;4979284;28;20041;-71
2022/06/27 05:17:46;;;;;;;6.65;6.05;;;16.20;99.90;;;;;;4975452;28;20046;-71
2022/06/27 05:20:12;;;;;;;6.32;4.90;;;16.20;99.90;;;;;;4973996;28;20045;-71
2022/06/27 05:22:38;;;;;;;6.07;5.55;;;16.20;99.90;;;;;;4974216;28;20057;-71
2022/06/27 05:25:04;;;;;;;7.32;6.30;;;16.30;99.90;;;;;;4972443;28;20113;-71
2022/06/27 05:27:30;;;;;;;6.18;5.50;;;16.30;99.90;;;;;;4989962;28;20042;-71
2022/06/27 05:29:56;;;;;;;6.57;5.90;;;16.30;99.90;;;;;;4973381;28;20063;-71
2022/06/27 05:32:21;;;;;;;6.85;6.25;;;16.40;99.90;;;;;;4975155;28;20618;-71
2022/06/27 05:34:48;;;;;;;6.63;5.97;;;16.40;99.90;;;;;;4972874;28;20112;-71
2022/06/27 05:37:14;;;;;;;6.78;6.18;;;16.50;99.90;;;;;;4975222;28;20046;-71
2022/06/27 05:39:43;;;;;;;6.43;5.75;;;16.50;99.90;;;;;;4994105;28;20390;-71
2022/06/27 05:42:09;;;;;;;6.25;5.70;;;16.60;99.90;;;;;;4970426;28;20050;-71
2022/06/27 05:44:35;;;;;;;6.30;4.95;;;16.70;99.90;;;;;;4976496;28;20125;-71
2022/06/27 05:47:00;;;;;;;5.28;4.55;;;16.80;99.90;;;;;;4977137;28;20221;-71
2022/06/27 05:49:26;;;;;;;5.45;4.35;;;16.80;99.90;;;;;;4977274;28;20062;-70
2022/06/27 05:51:54;;;;;;;5.30;4.10;;;16.90;99.90;;;;;;4976821;28;20148;-70
2022/06/27 05:54:23;;;;;;;3.65;3.35;;;17.00;99.90;;;;;;4977640;28;20130;-70
2022/06/27 05:56:50;;;;;;;4.72;3.17;;;17.00;99.90;;;;;;4960003;28;20051;-70
2022/06/27 05:59:17;;;;;;;4.82;2.60;;;17.00;99.90;;;;;;4977860;28;20042;-70
2022/06/27 06:01:45;;;;;;;2.97;2.45;;;16.90;99.90;;;;;;4976161;28;20054;-70
2022/06/27 06:04:12;;;;;;;3.20;2.35;;;16.90;99.90;;;;;;4993959;28;20077;-71
2022/06/27 06:06:38;;;;;;;2.40;2.13;;;16.90;99.90;;;;;;4977935;28;20249;-71
2022/06/27 06:09:04;;;;;;;2.83;2.47;;;16.90;99.90;;;;;;4983140;28;20050;-71
2022/06/27 06:11:31;;;;;;;2.03;1.80;;;17.00;99.90;;;;;;4958551;28;20061;-70
2022/06/27 06:13:58;;;;;;;2.67;2.28;;;17.00;99.90;;;;;;4979293;28;20062;-70
2022/06/27 06:16:24;;;;;;;2.00;1.80;;;16.90;99.90;;;;;;4961019;28;20057;-70
2022/06/27 06:18:52;;;;;;;3.17;2.20;;;16.90;99.90;;;;;;4977492;28;21262;-70
2022/06/27 06:21:20;;;;;;;2.38;2.13;;;16.90;99.90;;;;;;4977638;28;20632;-70
2022/06/27 06:23:46;;;;;;;2.63;2.17;;;16.90;99.90;;;;;;4977279;28;20444;-70
2022/06/27 06:26:16;;;;;;;1.85;1.75;;;16.90;99.90;;;;;;4977258;28;20042;-70
2022/06/27 06:28:44;;;;;;;2.30;1.80;;;17.00;99.90;;;;;;4961092;28;20053;-70
2022/06/27 06:31:09;;;;;;;2.75;1.70;;;17.00;99.90;;;;;;4976176;28;20137;-70
2022/06/27 06:33:35;;;;;;;2.60;1.80;;;17.00;99.90;;;;;;4975844;28;20458;-70
2022/06/27 06:36:02;;;;;;;2.92;1.88;;;17.00;99.90;;;;;;4975759;28;20478;-70
2022/06/27 06:38:29;;;;;;;2.50;2.20;;;17.00;99.90;;;;;;4958999;28;20050;-70
2022/06/27 06:40:55;;;;;;;2.42;1.80;;;17.00;99.90;;;;;;4975835;28;20084;-70
2022/06/27 06:43:21;;;;;;;3.25;2.17;;;17.00;99.90;;;;;;4975436;28;20054;-70
2022/06/27 06:45:47;;;;;;;2.45;2.20;;;16.90;99.90;;;;;;4976486;28;20498;-70
2022/06/27 06:48:14;;;;;;;2.45;2.10;;;17.00;99.90;;;;;;4975353;28;20100;-71
2022/06/27 06:50:41;;;;;;;3.83;2.20;;;17.00;99.90;;;;;;4975649;28;20050;-71
2022/06/27 06:53:06;;;;;;;3.17;2.30;;;16.90;99.90;;;;;;4993318;28;20089;-71
2022/06/27 06:55:32;;;;;;;3.33;2.00;;;17.00;99.90;;;;;;4956137;28;20058;-71
2022/06/27 06:57:58;;;;;;;3.92;2.30;;;17.00;99.90;;;;;;4992551;28;20038;-71
2022/06/27 07:00:24;;;;;;;3.00;2.17;;;17.00;99.90;;;;;;4975982;28;20061;-71
2022/06/27 07:02:52;;;;;;;3.05;1.80;;;17.10;99.90;;;;;;4975589;28;20478;-71
2022/06/27 07:05:19;;;;;;;3.08;2.72;;;17.10;99.90;;;;;;4965069;28;20116;-71
2022/06/27 07:07:47;;;;;;;2.08;1.88;;;17.20;99.90;;;;;;4976830;28;20648;-71
2022/06/27 07:10:14;;;;;;;3.78;2.38;;;17.30;99.90;;;;;;4975365;28;20104;-71
2022/06/27 07:12:41;;;;;;;4.18;1.95;;;17.40;99.90;;;;;;4959550;28;20680;-71
2022/06/27 07:15:10;;;;;;;2.42;1.95;;;17.40;99.90;;;;;;4991502;28;20043;-71
2022/06/27 07:17:44;;;;;;;2.60;2.17;;;17.40;99.90;;;;;;4992795;28;20065;-71
2022/06/27 07:20:11;;;;;;;3.15;2.38;;;17.50;99.90;;;;;;4975941;28;20108;-72
2022/06/27 07:22:38;;;;;;;2.40;2.10;;;17.50;99.90;;;;;;4975230;28;20069;-71
2022/06/27 07:25:04;;;;;;;3.20;2.15;;;17.50;99.90;;;;;;4975453;28;20042;-71
2022/06/27 07:27:32;;;;;;;4.38;2.10;;;17.50;99.90;;;;;;4980811;28;20087;-71
2022/06/27 07:29:59;;;;;;;2.50;1.88;;;17.50;99.90;;;;;;4992626;28;20068;-71
2022/06/27 07:32:26;;;;;;;3.10;2.05;;;17.50;99.90;;;;;;4975405;28;20545;-71
2022/06/27 07:34:51;;;;;;;3.05;1.95;;;17.50;99.90;;;;;;4992981;28;20042;-71
2022/06/27 07:37:18;;;;;;;2.72;1.98;;;17.50;99.90;;;;;;4974488;28;20065;-71
2022/06/27 07:39:44;;;;;;;2.25;1.90;;;17.50;99.90;;;;;;4975374;28;20462;-71
2022/06/27 07:42:09;;;;;;;3.55;2.05;;;17.50;99.90;;;;;;4973593;28;20060;-71
2022/06/27 07:44:35;;;;;;;1.95;1.67;;;17.50;99.90;;;;;;4977793;28;20125;-71
2022/06/27 07:47:03;;;;;;;2.70;2.10;;;17.50;99.90;;;;;;4974341;28;20054;-71
2022/06/27 07:49:30;;;;;;;3.00;2.22;;;17.50;99.90;;;;;;4974771;28;20046;-71
2022/06/27 07:51:57;;;;;;;3.35;2.08;;;17.60;99.90;;;;;;4974153;28;20450;-71
2022/06/27 07:54:23;;;;;;;3.22;2.05;;;17.60;99.90;;;;;;4974914;28;20100;-71
2022/06/27 07:56:50;;;;;;;2.58;1.67;;;17.60;99.90;;;;;;4973521;28;20061;-71
2022/06/27 07:59:18;;;;;;;2.20;1.77;;;17.80;99.90;;;;;;4976414;28;20046;-71
2022/06/27 08:01:44;;;;;;;2.60;1.70;;;17.80;99.90;;;;;;4971179;28;20081;-71
2022/06/27 08:04:12;;;;;;;2.95;2.25;;;17.90;99.90;;;;;;4975762;28;20058;-71
2022/06/27 08:06:39;;;;;;;3.80;1.83;;;17.90;99.90;;;;;;4974230;28;20481;-71
2022/06/27 08:09:06;;;;;;;2.60;1.98;;;18.00;99.90;;;;;;4992026;28;20047;-72
2022/06/27 08:11:35;;;;;;;2.00;1.77;;;18.20;99.90;;;;;;4973802;28;20042;-72
2022/06/27 08:14:05;;;;;;;3.50;1.98;;;18.30;99.90;;;;;;4972848;28;20512;-73
2022/06/27 08:16:33;;;;;;;3.50;1.60;;;18.40;99.90;;;;;;4976136;28;20088;-72
2022/06/27 08:19:00;;;;;;;2.15;1.48;;;18.60;99.90;;;;;;4958091;28;20112;-72
2022/06/27 08:21:27;;;;;;;1.67;1.30;;;18.60;99.90;;;;;;4980655;28;20054;-73
2022/06/27 08:24:02;;;;;;;2.17;1.30;;;18.70;99.90;;;;;;4973797;28;20058;-73
2022/06/27 08:26:29;;;;;;;2.65;1.50;;;18.70;99.90;;;;;;4950277;28;20042;-72
2022/06/27 08:28:58;;;;;;;1.60;1.50;;;18.70;99.90;;;;;;4973663;28;20506;-72
2022/06/27 08:31:25;;;;;;;3.05;1.60;;;18.70;99.90;;;;;;4982214;28;20689;-72
2022/06/27 08:33:55;;;;;;;2.67;1.60;;;18.70;99.90;;;;;;4974949;28;20078;-72
2022/06/27 08:36:23;;;;;;;2.83;1.52;;;18.70;99.90;;;;;;4958329;28;20389;-72
2022/06/27 08:38:50;;;;;;;3.97;1.50;;;18.70;99.90;;;;;;4969111;28;20058;-72
2022/06/27 08:41:20;;;;;;;3.47;1.90;;;18.70;99.90;;;;;;4975219;28;20689;-72
2022/06/27 08:43:48;;;;;;;2.20;1.55;;;18.70;99.90;;;;;;4967457;28;20058;-71
2022/06/27 08:46:16;;;;;;;2.30;1.60;;;18.80;99.90;;;;;;4973326;28;20129;-71
2022/06/27 08:48:45;;;;;;;2.03;1.40;;;18.90;99.90;;;;;;4979172;28;20054;-71
2022/06/27 08:51:12;;;;;;;1.50;1.17;;;19.10;99.90;;;;;;4974666;28;20054;-73
2022/06/27 08:53:38;;;;;;;1.80;0.90;;;19.20;99.90;;;;;;4957289;28;20050;-73
2022/06/27 08:56:08;;;;;;;1.83;1.23;;;19.40;99.90;;;;;;4959984;28;20065;-73
2022/06/27 08:58:35;;;;;;;2.65;1.58;;;19.60;99.90;;;;;;4972126;28;20555;-73
2022/06/27 09:01:02;;;;;;;2.10;1.30;;;19.70;99.90;;;;;;4974207;28;20439;-73
2022/06/27 09:03:28;;;;;;;3.22;1.50;;;20.00;99.90;;;;;;4973789;28;20073;-73
2022/06/27 09:06:00;;;;;;;1.30;1.20;;;20.50;99.90;;;;;;4973968;28;20046;-73
2022/06/27 09:08:28;;;;;;;2.05;1.00;;;20.80;99.90;;;;;;4974236;28;20077;-73
2022/06/27 09:10:56;;;;;;;2.08;1.35;;;20.80;99.90;;;;;;4960321;28;20061;-73
2022/06/27 09:13:23;;;;;;;1.35;0.90;;;20.90;99.90;;;;;;4977027;28;20038;-73
2022/06/27 09:16:03;;;;;;;1.13;0.82;;;21.00;99.90;;;;;;4978009;28;20030;-73
2022/06/27 09:18:33;;;;;;;1.77;1.23;;;21.00;99.90;;;;;;4961325;28;20049;-73
2022/06/27 09:21:04;;;;;;;3.42;0.70;;;20.90;99.90;;;;;;4979767;28;20109;-73
2022/06/27 09:23:43;;;;;;;2.75;0.98;;;20.80;99.90;;;;;;4977075;28;20169;-73
2022/06/27 09:26:15;;;;;;;1.30;0.80;;;20.60;99.90;;;;;;4978888;28;20110;-73
2022/06/27 09:28:48;;;;;;;1.13;0.68;;;20.40;99.90;;;;;;4973889;28;20092;-73
2022/06/27 09:31:25;;;;;;;1.47;0.77;;;20.20;99.90;;;;;;4975191;28;20048;-73
2022/06/27 09:34:16;;;;;;;1.65;1.10;;;20.00;99.90;;;;;;4980239;28;20367;-73
2022/06/27 09:36:50;;;;;;;1.25;1.00;;;19.90;99.90;;;;;;4990579;28;20094;-73
2022/06/27 09:39:24;;;;;;;2.50;1.00;;;19.90;99.90;;;;;;4982189;28;20541;-72
2022/06/27 09:42:09;;;;;;;2.45;1.10;;;19.80;99.90;;;;;;4978164;28;20093;-72
2022/06/27 09:44:44;;;;;;;1.38;1.20;;;19.80;99.90;;;;;;4975356;28;20038;-72
2022/06/27 09:47:15;;;;;;;2.42;1.08;;;19.70;99.90;;;;;;4993687;28;20251;-72
2022/06/27 09:49:46;;;;;;;1.20;0.95;;;19.70;99.90;;;;;;4975785;28;20046;-72
2022/06/27 09:52:18;;;;;;;1.60;0.88;;;19.80;99.90;;;;;;4977014;28;20544;-72
2022/06/27 09:54:46;;;;;;;3.42;0.95;;;19.80;99.90;;;;;;4975020;28;20053;-72
2022/06/27 09:57:13;;;;;;;2.92;1.77;;;19.90;99.90;;;;;;4975664;28;20039;-72
2022/06/27 09:59:39;;;;;;;2.92;2.20;;;19.90;99.90;;;;;;4982398;28;20105;-72
2022/06/27 10:02:06;;;;;;;2.45;2.10;;;19.90;99.90;;;;;;4967966;28;20707;-72
2022/06/27 10:04:35;;;;;;;3.22;2.65;;;19.90;99.90;;;;;;4984111;28;20045;-72
2022/06/27 10:07:03;;;;;;;3.78;1.85;;;20.00;99.90;;;;;;4959531;28;20100;-72
2022/06/27 10:09:31;;;;;;;3.78;2.00;;;20.00;99.90;;;;;;4978287;28;20039;-72
2022/06/27 10:12:26;;;;;;;3.25;2.42;;;20.00;99.90;;;;;;4977254;28;20089;-72
2022/06/27 10:15:10;;;;;;;2.20;1.77;;;20.10;99.90;;;;;;4974720;28;20065;-72
2022/06/27 10:17:38;;;;;;;2.83;1.75;;;20.00;99.90;;;;;;4975459;28;20469;-72
2022/06/27 10:20:20;;;;;;;3.33;2.42;;;19.90;99.90;;;;;;4977471;28;20509;-72
2022/06/27 10:23:04;;;;;;;2.65;2.45;;;19.90;99.90;;;;;;4961776;28;20035;-72
2022/06/27 10:25:29;;;;;;;3.53;2.88;;;19.80;99.90;;;;;;4990381;28;20046;-72
2022/06/27 10:28:11;;;;;;;3.05;2.85;;;19.70;99.90;;;;;;4976186;28;20053;-72
2022/06/27 10:30:42;;;;;;;3.47;3.17;;;19.60;99.90;;;;;;4976502;28;20141;-72
2022/06/27 10:33:26;;;;;;;5.25;2.92;;;19.60;99.90;;;;;;4976901;28;20034;-72
2022/06/27 10:35:59;;;;;;;4.93;3.22;;;19.60;99.90;;;;;;4972882;28;20434;-72
2022/06/27 10:38:39;;;;;;;4.82;2.90;;;19.60;99.90;;;;;;4969321;28;20096;-72
2022/06/27 10:41:10;;;;;;;3.83;2.83;;;19.70;99.90;;;;;;4974305;28;20064;-72
2022/06/27 10:43:38;;;;;;;4.00;3.15;;;19.70;99.90;;;;;;4975492;28;20442;-72
2022/06/27 10:46:10;;;;;;;4.20;3.50;;;19.80;99.90;;;;;;4976149;28;20050;-72
2022/06/27 10:48:38;;;;;;;3.28;2.95;;;19.80;99.90;;;;;;4960175;28;20363;-72
2022/06/27 10:51:26;;;;;;;2.88;2.40;;;19.90;99.90;;;;;;4976846;28;20121;-72
2022/06/27 10:54:04;;;;;;;2.92;2.20;;;19.90;99.90;;;;;;4965686;28;20050;-73
2022/06/27 10:56:37;;;;;;;3.13;2.30;;;19.90;99.90;;;;;;4969766;28;20042;-73
2022/06/27 10:59:06;;;;;;;3.63;2.00;;;19.90;99.90;;;;;;4957353;28;20050;-73
2022/06/27 11:01:32;;;;;;;3.38;2.25;;;19.90;99.90;;;;;;4972110;28;20069;-73
2022/06/27 11:03:58;;;;;;;4.40;2.45;;;19.90;99.90;;;;;;4972837;28;20073;-73
2022/06/27 11:06:25;;;;;;;4.25;2.22;;;19.90;99.90;;;;;;4975538;28;20054;-74
2022/06/27 11:08:53;;;;;;;5.60;2.90;;;19.90;99.90;;;;;;4960038;28;20134;-74
2022/06/27 11:11:21;;;;;;;3.63;2.80;;;20.00;99.90;;;;;;4972734;28;20073;-74
2022/06/27 11:13:55;;;;;;;3.83;2.60;;;20.00;99.90;;;;;;4974628;28;20050;-73
2022/06/27 11:16:22;;;;;;;;;;;20.00;99.90;;;;;;4975021;28;20058;-73
2022/06/27 11:19:03;;;;;;;4.70;2.40;;;20.00;99.90;;;;;;4975445;28;19930;-73
2022/06/27 11:21:38;;;;;;;4.90;2.80;;;20.10;99.90;;;;;;4974511;28;20379;-73
2022/06/27 11:24:10;;;;;;;3.38;2.80;;;20.00;99.90;;;;;;4974706;28;20165;-73
2022/06/27 11:26:54;;;;;;;4.38;3.05;;;20.00;99.90;;;;;;4973386;28;20080;-72
2022/06/27 11:32:14;;;;;;;3.40;2.83;;;19.90;99.90;;;;;;4973652;28;20050;-72
2022/06/27 11:34:51;;;;;;;3.83;2.63;;;20.00;99.90;;;;;;4974145;28;20041;-72
2022/06/27 11:37:23;;;;;;;3.40;2.85;;;20.00;99.90;;;;;;4989670;28;20120;-73
2022/06/27 11:40:06;;;;;;;3.13;2.20;;;20.10;99.90;;;;;;4972006;28;20141;-73
2022/06/27 11:42:34;;;;;;;2.60;2.35;;;20.10;99.90;;;;;;4961353;28;20082;-74
2022/06/27 11:45:10;;;;;;;4.55;2.50;;;20.00;99.90;;;;;;4974645;28;20117;-73
2022/06/27 11:47:38;;;;;;;2.80;2.35;;;20.10;99.90;;;;;;4959274;28;20201;-73
2022/06/27 11:50:06;;;;;;;4.03;3.17;;;20.10;99.90;;;;;;4959055;28;20086;-73
2022/06/27 11:52:42;;;;;;;3.58;2.72;;;20.00;99.90;;;;;;4973987;28;20125;-73
2022/06/27 11:55:10;;;;;;;3.65;3.35;;;20.10;99.90;;;;;;4975568;28;20030;-74
2022/06/27 11:57:36;;;;;;;3.67;3.22;;;20.00;99.90;;;;;;4973656;28;20038;-74
2022/06/27 12:00:06;;;;;;;5.28;3.67;;;20.00;99.90;;;;;;4975331;28;20046;-74
2022/06/27 12:02:35;;;;;;;4.65;3.53;;;19.90;99.90;;;;;;4973067;28;20075;-74
2022/06/27 12:05:05;;;;;;;4.72;3.33;;;19.90;99.90;;;;;;4977764;28;20506;-74
2022/06/27 12:07:31;;;;;;;3.83;3.53;;;19.90;99.90;;;;;;4973379;28;20080;-74
2022/06/27 12:09:56;;;;;;;3.78;3.38;;;19.90;99.90;;;;;;4974093;28;20085;-74
2022/06/27 12:12:29;;;;;;;4.63;3.60;;;20.00;99.90;;;;;;4949169;28;20046;-74
2022/06/27 12:14:55;;;;;;;4.55;3.70;;;20.20;99.90;;;;;;4974766;28;20043;-74
2022/06/27 12:17:23;;;;;;;4.22;3.28;;;20.20;99.90;;;;;;4973296;28;20065;-73
2022/06/27 12:20:01;;;;;;;3.65;3.28;;;20.30;99.90;;;;;;4988890;28;20050;-73
2022/06/27 12:22:27;;;;;;;3.75;3.08;;;20.40;99.90;;;;;;4955845;28;20047;-73
2022/06/27 12:24:53;;;;;;;4.65;3.60;;;20.50;99.90;;;;;;4974688;28;20817;-73
2022/06/27 12:27:19;;;;;;;4.75;4.32;;;20.50;99.90;;;;;;4973361;28;20124;-73
2022/06/27 12:29:45;;;;;;;4.30;3.80;;;20.60;99.90;;;;;;4976157;28;20046;-73
2022/06/27 12:32:10;;;;;;;3.80;3.42;;;20.60;99.90;;;;;;4971935;28;20049;-73
2022/06/27 12:34:36;;;;;;;4.28;3.88;;;20.60;99.90;;;;;;4975757;28;20042;-73
2022/06/27 12:37:02;;;;;;;4.22;3.83;;;20.70;99.90;;;;;;4974568;28;20035;-73
2022/06/27 12:39:29;;;;;;;4.72;2.90;;;20.70;99.90;;;;;;4959749;28;20141;-73
2022/06/27 12:41:54;;;;;;;5.20;3.58;;;20.80;99.90;;;;;;4972900;28;20038;-73
2022/06/27 12:44:20;;;;;;;4.82;4.00;;;20.80;99.90;;;;;;4956647;28;20503;-73
2022/06/27 12:46:46;;;;;;;4.43;3.75;;;20.90;99.90;;;;;;4975646;28;20034;-74
2022/06/27 12:49:12;;;;;;;4.35;3.83;;;20.90;99.90;;;;;;4951894;28;20518;-74
2022/06/27 12:51:38;;;;;;;4.50;4.03;;;20.90;99.90;;;;;;4960459;28;20133;-74
2022/06/27 12:54:04;;;;;;;4.82;4.10;;;20.80;99.90;;;;;;4974279;28;20165;-74